Time;durP1;ratioP1;P1;durP2;ratioP2;P2;SDS_P1;SDS_P2;PMS_P1;PMS_P2;Temp;Humidity;BMP_temperature;BMP_pressure;BME280_temperature;BME280_humidity;BME280_pressure;Samples;Min_cycle;Max_cycle;Signal;HPM_P1;HPM_P2
2022/04/19 00:03:59;;;;;;;42.07;39.83;;;;;;;10.56;100.00;101639.27;1794347;78;86355;-70
2022/04/19 00:09:43;;;;;;;40.53;38.33;;;;;;;10.77;100.00;101633.59;1807733;78;85427;-74
2022/04/19 00:15:30;;;;;;;38.40;36.40;;;;;;;11.00;100.00;101634.27;1809364;77;86371;-75
2022/04/19 00:21:15;;;;;;;36.57;34.47;;;;;;;11.05;100.00;101632.36;1818187;78;86354;-75
2022/04/19 00:26:59;;;;;;;35.77;33.87;;;;;;;11.00;100.00;101629.55;1963471;71;86266;-74
2022/04/19 00:32:45;;;;;;;36.80;34.47;;;;;;;10.95;100.00;101633.13;1800566;78;86200;-72
2022/04/19 00:38:29;;;;;;;34.87;32.97;;;;;;;11.17;100.00;101622.41;1870486;75;87068;-75
2022/04/19 00:44:14;;;;;;;33.43;31.53;;;;;;;11.18;100.00;101621.30;1983958;71;39566;-76
2022/04/19 00:50:01;;;;;;;34.00;32.20;;;;;;;11.33;100.00;101613.05;1974573;71;86318;-76
2022/04/19 00:55:47;;;;;;;33.93;32.13;;;;;;;11.23;100.00;101615.77;1897625;74;86030;-75
2022/04/19 01:01:31;;;;;;;34.57;32.67;;;;;;;11.05;100.00;101612.91;1871070;75;86474;-75
2022/04/19 01:07:16;;;;;;;37.20;35.17;;;;;;;11.16;100.00;101602.68;1903846;72;86301;-74
2022/04/19 01:13:19;;;;;;;37.93;35.63;;;;;;;11.09;100.00;101595.12;1801391;78;85986;-73
2022/04/19 01:19:06;;;;;;;39.17;36.90;;;;;;;10.95;100.00;101582.28;1985116;71;39691;-75
2022/04/19 01:25:00;;;;;;;40.00;37.70;;;;;;;10.88;100.00;101583.90;1810741;78;86381;-76
2022/04/19 01:30:45;;;;;;;40.93;38.83;;;;;;;10.84;100.00;101581.38;1800525;78;86302;-75
2022/04/19 01:36:29;;;;;;;43.33;41.13;;;;;;;10.79;100.00;101580.50;1867449;75;86645;-70
2022/04/19 01:42:14;;;;;;;45.67;43.17;;;;;;;10.82;100.00;101577.20;1980282;71;39589;-72
2022/04/19 01:48:00;;;;;;;45.17;42.70;;;;;;;10.82;100.00;101578.05;1840742;76;86258;-74
2022/04/19 01:53:45;;;;;;;46.40;43.90;;;;;;;10.60;100.00;101577.34;1825390;77;86333;-75
2022/04/19 01:59:28;;;;;;;51.87;48.83;;;;;;;10.11;100.00;101578.58;1863221;76;86341;-75
2022/04/19 02:05:13;;;;;;;52.10;49.30;;;;;;;10.44;100.00;101575.55;1983780;71;39432;-73
2022/04/19 02:11:00;;;;;;;56.60;53.50;;;;;;;10.05;100.00;101588.25;1845474;76;85540;-75
2022/04/19 02:16:44;;;;;;;57.40;54.30;;;;;;;10.25;100.00;101584.02;1807078;78;86659;-72
2022/04/19 02:22:28;;;;;;;55.90;52.80;;;;;;;10.22;100.00;101585.95;1808167;77;86114;-75
2022/04/19 02:28:13;;;;;;;55.90;52.90;;;;;;;10.21;100.00;101578.71;1984352;71;39624;-73
2022/04/19 02:33:58;;;;;;;56.63;52.90;;;;;;;10.38;100.00;101575.23;1824112;76;86361;-74
2022/04/19 02:39:43;;;;;;;57.10;53.70;;;;;;;9.94;100.00;101575.39;1798572;78;86493;-74
2022/04/19 02:45:27;;;;;;;58.43;55.17;;;;;;;10.12;100.00;101582.49;1806014;76;85437;-75
2022/04/19 02:51:15;;;;;;;60.97;57.47;;;;;;;9.33;100.00;101582.22;1909058;72;86328;-83
2022/04/19 02:56:59;;;;;;;60.77;57.17;;;;;;;9.05;100.00;101584.66;1809575;78;86027;-74
2022/04/19 03:02:42;;;;;;;60.80;57.10;;;;;;;9.07;100.00;101592.73;1838114;76;85372;-74
2022/04/19 03:08:27;;;;;;;61.30;57.67;;;;;;;8.99;100.00;101588.98;1858032;75;86090;-75
2022/04/19 03:14:12;;;;;;;63.07;59.10;;;;;;;9.54;100.00;101586.09;1980893;71;39624;-72
2022/04/19 03:19:57;;;;;;;61.77;58.17;;;;;;;9.52;100.00;101583.56;1848402;76;86203;-73
2022/04/19 03:31:42;;;;;;;63.27;59.57;;;;;;;9.37;100.00;101586.73;1823175;76;86415;-74
2022/04/19 03:37:29;;;;;;;61.17;57.40;;;;;;;9.37;100.00;101582.56;1806056;77;86763;-75
2022/04/19 03:43:13;;;;;;;61.90;58.13;;;;;;;9.13;100.00;101581.98;1937260;71;39598;-75
2022/04/19 03:48:57;;;;;;;62.03;58.17;;;;;;;9.28;100.00;101579.41;1834546;76;86258;-75
2022/04/19 03:54:41;;;;;;;62.73;58.73;;;;;;;9.51;100.00;101579.66;1882131;73;85423;-84
2022/04/19 04:00:24;;;;;;;60.53;56.73;;;;;;;9.56;100.00;101571.40;1801908;76;86077;-75
2022/04/19 04:06:08;;;;;;;60.87;56.90;;;;;;;9.05;100.00;101574.12;1949320;71;39609;-73
2022/04/19 04:11:52;;;;;;;61.27;57.47;;;;;;;8.83;100.00;101577.41;1840794;75;86051;-74
2022/04/19 04:17:36;;;;;;;59.60;55.80;;;;;;;8.74;100.00;101589.48;1865388;75;86055;-74
2022/04/19 04:23:22;;;;;;;60.63;56.83;;;;;;;9.06;100.00;101582.73;1899179;72;85440;-75
2022/04/19 04:29:06;;;;;;;62.17;58.30;;;;;;;9.29;100.00;101578.84;1934302;71;39529;-75
2022/04/19 04:34:51;;;;;;;60.37;56.57;;;;;;;9.12;100.00;101574.20;1836224;75;86227;-73
2022/04/19 04:40:36;;;;;;;63.37;59.40;;;;;;;8.78;100.00;101576.80;1871000;75;86247;-73
2022/04/19 04:52:22;;;;;;;60.77;56.83;;;;;;;8.71;100.00;101589.16;1928512;73;86662;-71
2022/04/19 04:58:06;;;;;;;61.47;57.47;;;;;;;8.77;100.00;101593.11;1978215;71;39745;-74
2022/04/19 05:03:49;;;;;;;60.67;56.67;;;;;;;8.88;100.00;101593.57;1848995;76;86188;-74
2022/04/19 05:09:33;;;;;;;60.13;56.00;;;;;;;8.73;100.00;101606.37;1877596;75;85528;-74
2022/04/19 05:15:19;;;;;;;64.03;60.03;;;;;;;8.75;100.00;101606.94;1919457;74;87006;-75
2022/04/19 05:21:05;;;;;;;61.50;57.37;;;;;;;8.93;100.00;101614.97;1934805;71;39512;-71
2022/04/19 05:26:48;;;;;;;61.90;57.80;;;;;;;8.74;100.00;101613.03;1881227;74;85903;-76
2022/04/19 05:32:32;;;;;;;58.23;54.33;;;;;;;8.59;100.00;101619.19;1885520;75;86026;-73
2022/04/19 05:38:17;;;;;;;61.23;57.13;;;;;;;8.32;100.00;101618.19;1920998;73;85290;-81
2022/04/19 05:44:01;;;;;;;64.53;60.07;;;;;;;8.48;100.00;101606.27;1894139;74;85855;-75
2022/04/19 05:49:45;;;;;;;63.00;58.87;;;;;;;9.08;100.00;101599.37;1807599;78;86151;-73
2022/04/19 05:55:30;;;;;;;61.90;58.00;;;;;;;9.20;100.00;101606.75;1863674;75;86038;-76
2022/04/19 06:01:13;;;;;;;63.30;59.30;;;;;;;9.28;100.00;101608.52;1984253;71;39518;-75
2022/04/19 06:06:57;;;;;;;64.50;60.63;;;;;;;9.22;100.00;101610.08;1814513;76;86425;-74
2022/04/19 06:12:40;;;;;;;62.70;58.70;;;;;;;9.24;100.00;101612.87;1870515;74;86539;-74
2022/04/19 06:18:26;;;;;;;64.43;60.43;;;;;;;9.31;100.00;101614.92;1798241;77;86428;-78
2022/04/19 06:24:10;;;;;;;63.83;59.93;;;;;;;9.41;100.00;101604.52;1974916;71;39568;-72
2022/04/19 06:29:57;;;;;;;63.20;59.30;;;;;;;9.53;100.00;101616.30;1814843;76;86278;-81
2022/04/19 06:35:42;;;;;;;62.53;58.40;;;;;;;9.53;100.00;101613.53;1885255;73;86513;-84
2022/04/19 06:41:26;;;;;;;63.17;59.27;;;;;;;9.67;100.00;101616.74;1861582;76;86299;-86
2022/04/19 06:47:11;;;;;;;61.07;57.07;;;;;;;9.80;100.00;101619.08;1976606;71;39395;-71
2022/04/19 06:52:55;;;;;;;61.57;57.77;;;;;;;10.03;100.00;101611.83;1978213;72;85535;-75
2022/04/19 06:58:39;;;;;;;58.63;55.00;;;;;;;10.22;100.00;101611.78;1869107;75;86308;-71
2022/04/19 07:04:23;;;;;;;59.60;56.00;;;;;;;10.52;100.00;101607.02;1805115;78;86492;-74
2022/04/19 07:10:11;;;;;;;60.17;56.57;;;;;;;10.72;100.00;101608.55;1982915;71;39471;-70
2022/04/19 07:15:55;;;;;;;60.10;56.70;;;;;;;11.03;100.00;101605.95;1908306;73;85731;-74
2022/04/19 07:27:40;;;;;;;55.97;52.87;;;;;;;11.61;100.00;101607.57;1873432;74;86063;-76
2022/04/19 07:33:26;;;;;;;56.90;53.53;;;;;;;11.82;100.00;101610.72;1807876;77;86743;-73
2022/04/19 07:39:12;;;;;;;55.47;52.27;;;;;;;11.70;100.00;101615.67;1985141;71;40406;-75
2022/04/19 07:44:57;;;;;;;57.30;53.80;;;;;;;11.72;100.00;101619.87;1831713;75;85473;-72
2022/04/19 07:53:56;;;;;;;60.37;56.57;;;;;;;11.87;100.00;101627.44;1854258;76;86355;-75
2022/04/19 07:59:30;;;;;;;52.27;49.20;;;;;;;12.45;100.00;101627.49;1810341;78;87867;-76
2022/04/19 08:02:01;;;;;;;49.50;46.70;;;;;;;13.03;100.00;101629.38;1732619;81;937904;-70
2022/04/19 08:04:31;;;;;;;48.80;46.07;;;;;;;13.43;100.00;101616.73;1719072;81;940719;-72
2022/04/19 08:07:01;;;;;;;46.50;43.60;;;;;;;13.63;100.00;101609.66;1720391;81;939739;-76
2022/04/19 08:09:32;;;;;;;46.23;43.53;;;;;;;13.69;100.00;101611.28;1718826;81;939681;-76
2022/04/19 08:12:02;;;;;;;43.25;40.75;;;;;;;13.93;100.00;101612.83;1720215;81;940951;-72
2022/04/19 08:14:32;;;;;;;43.93;41.43;;;;;;;13.89;100.00;101608.95;1718870;81;940954;-73
2022/04/19 08:17:02;;;;;;;43.90;41.45;;;;;;;13.71;100.00;101611.00;1720281;81;941161;-73
2022/04/19 08:22:46;;;;;;;42.30;39.80;;;;;;;13.90;100.00;101607.83;1883347;74;85360;-77
2022/04/19 08:28:32;;;;;;;41.27;38.90;;;;;;;13.89;100.00;101603.92;1862012;75;86137;-75
2022/04/19 08:34:16;;;;;;;40.83;38.10;;;;;;;13.73;100.00;101604.58;1928612;73;85525;-73
2022/04/19 08:40:01;;;;;;;42.20;39.50;;;;;;;13.94;100.00;101593.55;1893254;74;86136;-74
2022/04/19 08:45:46;;;;;;;38.60;36.40;;;;;;;13.88;100.00;101598.89;1807891;78;86167;-78
2022/04/19 08:51:35;;;;;;;41.57;38.90;;;;;;;13.80;100.00;101592.52;1845604;76;85971;-73
2022/04/19 08:57:33;;;;;;;40.33;38.03;;;;;;;13.95;100.00;101598.55;1910925;74;86793;-79
2022/04/19 09:03:19;;;;;;;35.20;33.00;;;;;;;14.67;100.00;101585.16;1931721;73;86550;-80
2022/04/19 09:09:12;;;;;;;30.07;28.27;;;;;;;14.89;100.00;101581.26;1985493;71;39538;-74
2022/04/19 09:14:59;;;;;;;31.63;29.43;;;;;;;14.75;100.00;101590.66;1836948;76;86627;-75
2022/04/19 09:20:51;;;;;;;35.73;33.53;;;;;;;14.59;100.00;101591.35;1882097;74;86802;-75
2022/04/19 09:26:44;;;;;;;34.80;32.90;;;;;;;14.42;100.00;101593.75;1883614;75;85999;-75
2022/04/19 09:32:32;;;;;;;35.00;33.10;;;;;;;14.66;100.00;101591.03;1877923;75;86217;-75
2022/04/19 09:38:17;;;;;;;33.13;31.10;;;;;;;14.53;100.00;101599.53;1923015;73;85561;-75
2022/04/19 09:44:10;;;;;;;31.50;29.50;;;;;;;14.63;100.00;101599.45;1974288;71;40284;-72
2022/04/19 09:49:55;;;;;;;34.80;33.03;;;;;;;14.56;100.00;101599.78;1845094;76;86135;-76
2022/04/19 09:55:55;;;;;;;31.03;29.13;;;;;;;14.57;100.00;101596.42;1856047;76;86371;-73
2022/04/19 10:13:46;;;;;;;26.30;24.73;;;;;;;15.29;100.00;101583.32;1808866;78;86746;-74
2022/04/19 10:19:31;;;;;;;26.37;24.73;;;;;;;15.49;100.00;101578.29;1807376;77;86387;-72
2022/04/19 10:25:22;;;;;;;25.40;23.63;;;;;;;15.84;100.00;101569.14;1949048;72;85566;-82
2022/04/19 10:31:28;;;;;;;21.70;20.37;;;;;;;15.98;100.00;101570.06;1923612;71;85313;-82
2022/04/19 10:37:23;;;;;;;21.83;20.73;;;;;;;15.75;100.00;101570.95;1904825;72;85526;-84
2022/04/19 10:43:15;;;;;;;19.67;18.47;;;;;;;15.80;100.00;101570.33;1986207;71;39832;-76
2022/04/19 10:49:23;;;;;;;19.83;17.57;;;;;;;16.20;100.00;101566.06;1795431;78;86238;-70
2022/04/19 10:55:08;;;;;;;18.57;17.37;;;;;;;16.48;100.00;101558.56;1976069;71;39687;-72
2022/04/19 11:00:56;;;;;;;17.37;16.10;;;;;;;16.84;100.00;101555.97;1836636;76;86660;-72
2022/04/19 11:07:02;;;;;;;16.47;15.40;;;;;;;17.06;100.00;101551.05;1943675;71;40403;-74
2022/04/19 11:13:05;;;;;;;16.07;14.93;;;;;;;17.17;100.00;101557.53;1883659;74;86112;-74
2022/04/19 11:18:58;;;;;;;15.63;14.43;;;;;;;16.84;100.00;101557.37;1842713;76;86404;-73
2022/04/19 11:21:49;;;;;;;14.30;13.30;;;;;;;16.72;100.00;101554.23;1779200;77;939091;-71
2022/04/19 11:28:34;;;;;;;12.50;11.60;;;;;;;17.09;100.00;101548.44;1914251;72;86606;-72
2022/04/19 11:34:32;;;;;;;12.47;11.77;;;;;;;16.86;100.00;101548.66;1905613;74;86195;-76
2022/04/19 11:52:26;;;;;;;13.23;12.20;;;;;;;16.86;100.00;101552.86;1865885;75;86809;-73
2022/04/19 11:58:10;;;;;;;12.23;11.37;;;;;;;16.64;100.00;101554.39;1981833;71;39740;-70
2022/04/19 12:03:55;;;;;;;11.93;11.10;;;;;;;16.63;100.00;101554.69;1896940;74;85554;-73
2022/04/19 12:09:42;;;;;;;12.10;11.20;;;;;;;16.44;100.00;101542.09;1913972;73;86333;-77
2022/04/19 12:15:42;;;;;;;12.20;11.33;;;;;;;16.22;100.00;101552.55;1803270;77;86889;-75
2022/04/19 12:21:44;;;;;;;13.43;12.27;;;;;;;16.12;100.00;101549.94;1824360;78;86274;-72
2022/04/19 12:27:37;;;;;;;11.70;11.00;;;;;;;16.07;100.00;101556.19;1865075;75;86220;-72
2022/04/19 12:33:24;;;;;;;11.47;10.70;;;;;;;16.17;100.00;101556.84;1799828;77;86340;-75
2022/04/19 12:39:10;;;;;;;11.20;10.60;;;;;;;16.25;100.00;101554.77;1978312;71;39731;-75
2022/04/19 12:45:06;;;;;;;11.47;10.77;;;;;;;16.42;100.00;101552.80;1970074;71;86406;-72
2022/04/19 12:51:01;;;;;;;11.30;10.60;;;;;;;16.81;100.00;101549.58;1833508;76;85547;-72
2022/04/19 12:56:48;;;;;;;10.63;10.03;;;;;;;17.21;100.00;101545.10;1819071;77;86634;-75
2022/04/19 13:02:31;;;;;;;11.73;10.93;;;;;;;17.18;100.00;101542.93;1939978;72;86504;-72
2022/04/19 13:14:18;;;;;;;12.10;11.50;;;;;;;16.81;100.00;101544.77;1910911;72;86066;-71
2022/04/19 13:20:03;;;;;;;11.67;10.87;;;;;;;16.75;100.00;101535.37;1985916;71;39622;-75
2022/04/19 13:25:47;;;;;;;12.00;11.40;;;;;;;16.83;100.00;101534.09;1882142;74;86092;-72
2022/04/19 13:31:31;;;;;;;13.40;12.33;;;;;;;16.91;100.00;101529.72;1900771;73;86108;-72
2022/04/19 13:38:23;;;;;;;13.13;12.30;;;;;;;17.37;100.00;101513.33;1907652;72;86372;-75
2022/04/19 13:43:03;;;;;;;12.70;12.00;;;;;;;17.68;100.00;101514.30;1975863;71;39612;-72
2022/04/19 13:48:47;;;;;;;13.73;12.50;;;;;;;17.77;100.00;101513.81;1885251;74;85646;-73
2022/04/19 13:54:32;;;;;;;12.97;11.97;;;;;;;17.74;100.00;101503.22;1884951;73;86295;-73
2022/04/19 14:00:16;;;;;;;12.83;12.00;;;;;;;17.79;100.00;101500.86;1948420;73;86255;-74
2022/04/19 14:06:01;;;;;;;13.80;12.90;;;;;;;17.93;100.00;101504.42;1794800;78;86296;-75
2022/04/19 14:11:46;;;;;;;12.43;11.73;;;;;;;17.74;100.00;101499.00;1881667;74;86204;-72
2022/04/19 14:17:31;;;;;;;14.13;13.13;;;;;;;17.62;100.00;101500.14;1872191;75;85376;-74
2022/04/19 14:23:15;;;;;;;13.17;12.20;;;;;;;17.77;100.00;101500.33;1948400;73;86352;-73
2022/04/19 14:35:01;;;;;;;14.03;12.80;;;;;;;17.05;100.00;101508.11;1891079;74;86349;-76
2022/04/19 14:40:46;;;;;;;14.27;13.37;;;;;;;16.74;100.00;101516.30;1800879;78;86360;-72
2022/04/19 14:46:31;;;;;;;14.93;13.83;;;;;;;16.61;100.00;101520.48;1917524;72;86188;-74
2022/04/19 14:52:18;;;;;;;13.67;12.70;;;;;;;16.63;100.00;101523.83;1908057;72;85973;-72
2022/04/19 14:58:02;;;;;;;13.47;12.53;;;;;;;16.42;100.00;101526.16;1762329;79;86314;-73
2022/04/19 15:03:46;;;;;;;12.37;11.57;;;;;;;16.75;100.00;101525.56;1801898;78;86021;-74
2022/04/19 15:09:31;;;;;;;12.67;11.90;;;;;;;16.42;100.00;101524.75;1807364;77;85604;-71
2022/04/19 15:15:15;;;;;;;13.40;12.43;;;;;;;16.33;100.00;101530.80;1946442;73;86214;-73
2022/04/19 15:21:00;;;;;;;13.03;12.00;;;;;;;16.27;100.00;101527.24;1982481;71;86320;-71
2022/04/19 15:26:47;;;;;;;13.40;12.23;;;;;;;16.15;100.00;101529.70;1806637;78;86539;-74
2022/04/19 15:32:30;;;;;;;12.47;11.57;;;;;;;16.11;100.00;101517.44;1868895;76;86670;-74
2022/04/19 15:38:14;;;;;;;11.80;11.10;;;;;;;16.03;100.00;101508.89;1978302;71;39822;-77
2022/04/19 15:43:59;;;;;;;11.50;10.80;;;;;;;16.01;100.00;101499.38;1828719;76;86586;-70
2022/04/19 15:49:44;;;;;;;11.70;11.10;;;;;;;16.03;100.00;101493.48;1796397;78;86337;-76
2022/04/19 15:55:28;;;;;;;11.90;11.17;;;;;;;16.14;100.00;101496.36;1885123;75;86477;-74
2022/04/19 16:01:14;;;;;;;12.60;11.90;;;;;;;16.33;100.00;101490.98;1984954;71;39641;-70
2022/04/19 16:06:58;;;;;;;11.93;11.17;;;;;;;16.50;100.00;101493.19;1837566;75;86054;-78
2022/04/19 16:12:46;;;;;;;11.17;10.57;;;;;;;16.62;100.00;101492.70;1835236;76;85945;-75
2022/04/19 16:24:32;;;;;;;12.50;11.70;;;;;;;16.25;100.00;101495.90;1899787;74;86280;-73
2022/04/19 16:30:17;;;;;;;12.00;11.23;;;;;;;16.14;100.00;101498.59;1907932;72;86331;-75
2022/04/19 16:36:02;;;;;;;11.67;10.97;;;;;;;16.19;100.00;101493.48;1980426;71;39572;-69
2022/04/19 16:41:46;;;;;;;12.60;11.90;;;;;;;16.00;100.00;101495.51;1885947;74;86485;-74
2022/04/19 16:47:31;;;;;;;13.13;12.30;;;;;;;15.95;100.00;101500.63;1848126;76;86388;-75
2022/04/19 16:53:22;;;;;;;12.40;11.53;;;;;;;15.92;100.00;101495.05;1923081;72;85542;-73
2022/04/19 16:59:02;;;;;;;13.60;12.67;;;;;;;15.99;100.00;101493.27;1802152;78;85398;-79
2022/04/19 17:04:46;;;;;;;13.60;12.50;;;;;;;15.92;100.00;101495.61;1852795;75;85460;-75
2022/04/19 17:10:30;;;;;;;13.97;12.90;;;;;;;15.87;100.00;101490.11;1801011;77;86350;-73
2022/04/19 17:16:14;;;;;;;14.33;13.30;;;;;;;15.63;100.00;101497.20;1974663;71;61382;-73
2022/04/19 17:21:58;;;;;;;13.77;12.80;;;;;;;15.35;100.00;101496.19;1837001;76;86093;-74
2022/04/19 17:27:43;;;;;;;14.83;13.93;;;;;;;15.40;100.00;101500.30;1807690;78;86026;-76
2022/04/19 17:33:28;;;;;;;14.97;14.03;;;;;;;15.07;100.00;101500.48;1867044;75;86489;-73
2022/04/19 17:39:12;;;;;;;14.43;13.67;;;;;;;15.14;100.00;101498.17;1972444;71;40334;-77
2022/04/19 17:44:53;;;;;;;14.53;13.50;;;;;;;15.25;100.00;101499.69;1815824;75;107882;-73
2022/04/19 17:47:23;;;;;;;13.67;12.80;;;;;;;15.28;100.00;101508.30;1703690;81;940212;-75
2022/04/19 17:56:29;;;;;;;13.60;12.60;;;;;;;15.34;100.00;101501.52;1938046;71;39765;-77
2022/04/19 18:02:12;;;;;;;13.83;13.03;;;;;;;15.22;100.00;101517.09;1983617;71;39503;-73
2022/04/19 18:07:56;;;;;;;13.00;12.20;;;;;;;15.32;100.00;101521.13;1907945;74;85380;-74
2022/04/19 18:13:41;;;;;;;13.57;12.60;;;;;;;15.39;100.00;101520.21;1874445;73;86213;-74
2022/04/19 18:19:27;;;;;;;12.77;11.97;;;;;;;15.48;100.00;101527.64;1809409;77;86367;-76
2022/04/19 18:25:18;;;;;;;13.37;12.30;;;;;;;15.12;100.00;101478.87;1964804;72;86142;-71
2022/04/19 18:27:49;;;;;;;12.57;11.77;;;;;;;15.39;100.00;101544.84;1962529;70;936146;-74
2022/04/19 18:33:38;;;;;;;11.83;11.13;;;;;;;15.25;100.00;101538.87;1882454;74;85974;-75
2022/04/19 18:39:23;;;;;;;11.60;10.90;;;;;;;15.21;100.00;101548.44;1908251;74;86347;-73
2022/04/19 18:45:10;;;;;;;12.50;11.70;;;;;;;15.13;100.00;101562.26;1985398;71;40387;-72
2022/04/19 18:50:54;;;;;;;15.77;14.77;;;;;;;14.92;100.00;101565.86;1843103;76;86359;-75
2022/04/19 18:56:40;;;;;;;16.40;15.43;;;;;;;14.68;100.00;101577.01;1891067;73;86612;-74
2022/04/19 19:02:24;;;;;;;16.77;15.87;;;;;;;14.42;100.00;101579.21;1858497;74;86497;-72
2022/04/19 19:08:10;;;;;;;18.87;17.73;;;;;;;14.32;100.00;101588.23;1982404;71;39834;-72
2022/04/19 19:13:54;;;;;;;20.33;18.83;;;;;;;14.25;100.00;101593.33;1843342;76;86321;-72
2022/04/19 19:19:39;;;;;;;21.13;19.83;;;;;;;14.02;100.00;101601.88;1882905;74;86266;-73
2022/04/19 19:25:23;;;;;;;19.33;18.23;;;;;;;13.95;100.00;101615.31;1880688;73;85384;-74
2022/04/19 19:31:07;;;;;;;21.43;20.23;;;;;;;13.59;100.00;101620.28;1979737;71;39662;-72
2022/04/19 19:36:52;;;;;;;20.77;19.43;;;;;;;13.55;100.00;101629.80;1824374;76;86248;-74
2022/04/19 19:42:39;;;;;;;18.80;17.80;;;;;;;13.50;100.00;101634.00;1880499;75;87047;-76
2022/04/19 19:48:25;;;;;;;18.33;17.33;;;;;;;13.43;100.00;101644.64;1861738;74;86095;-78
2022/04/19 19:54:10;;;;;;;18.20;17.20;;;;;;;13.19;100.00;101651.41;1984841;71;39589;-71
2022/04/19 19:59:54;;;;;;;19.10;17.90;;;;;;;13.08;100.00;101661.45;1834013;76;85633;-73
2022/04/19 20:05:39;;;;;;;17.27;16.10;;;;;;;13.04;100.00;101659.79;1870617;74;86779;-74
2022/04/19 20:11:24;;;;;;;16.60;15.50;;;;;;;13.08;100.00;101663.69;1870639;75;86048;-71
2022/04/19 20:17:08;;;;;;;15.53;14.40;;;;;;;13.35;100.00;101666.72;1980562;71;39666;-74
2022/04/19 20:22:58;;;;;;;13.57;12.87;;;;;;;13.51;100.00;101666.38;1843167;76;86075;-73
2022/04/19 20:28:43;;;;;;;14.17;13.27;;;;;;;13.55;100.00;101663.30;1829563;76;86026;-74
2022/04/19 20:34:27;;;;;;;13.47;12.70;;;;;;;13.49;100.00;101672.80;1807101;77;86153;-74
2022/04/19 20:40:14;;;;;;;13.70;12.70;;;;;;;13.48;100.00;101682.28;1925082;71;39546;-73
2022/04/19 20:45:58;;;;;;;13.07;12.37;;;;;;;13.47;100.00;101692.36;1842069;76;86714;-74
2022/04/19 20:51:43;;;;;;;15.97;15.07;;;;;;;13.44;100.00;101695.69;1807102;78;86216;-74
2022/04/19 21:00:36;;;;;;;16.23;15.30;;;;;;;13.03;100.00;101706.08;1956961;70;86681;-75
2022/04/19 21:06:25;;;;;;;15.60;14.70;;;;;;;13.18;100.00;101706.92;1926627;71;86560;-74
2022/04/19 21:12:17;;;;;;;13.57;12.87;;;;;;;13.13;100.00;101700.53;1932559;71;39594;-74
2022/04/19 21:18:05;;;;;;;14.37;13.57;;;;;;;13.26;100.00;101704.14;1892216;74;87185;-73
2022/04/19 21:23:49;;;;;;;14.90;14.00;;;;;;;13.21;100.00;101702.19;1885421;74;86311;-74
2022/04/19 21:29:33;;;;;;;13.83;13.23;;;;;;;13.05;100.00;101694.91;1887284;75;86436;-74
2022/04/19 21:35:22;;;;;;;15.37;14.57;;;;;;;13.07;100.00;101712.77;1933176;73;86519;-73
2022/04/19 21:41:07;;;;;;;15.00;14.10;;;;;;;12.99;100.00;101707.77;1978594;71;39386;-75
2022/04/19 21:46:51;;;;;;;14.53;13.73;;;;;;;12.99;100.00;101716.97;1844655;76;86400;-75
2022/04/19 21:52:39;;;;;;;14.93;14.13;;;;;;;12.89;100.00;101725.33;1816833;76;85916;-74
2022/04/19 21:58:22;;;;;;;15.37;14.57;;;;;;;12.71;100.00;101730.90;1912217;74;85934;-74
2022/04/19 22:04:10;;;;;;;15.90;15.00;;;;;;;12.63;100.00;101731.45;1940801;71;39599;-75
2022/04/19 22:09:57;;;;;;;16.73;15.90;;;;;;;12.40;100.00;101729.77;1831355;76;86151;-74
2022/04/19 22:15:41;;;;;;;17.80;16.90;;;;;;;12.19;100.00;101717.75;1872970;75;86325;-73
2022/04/19 22:21:26;;;;;;;20.17;19.00;;;;;;;12.10;100.00;101729.98;1862098;75;86348;-74
2022/04/19 22:27:10;;;;;;;21.10;20.00;;;;;;;11.71;100.00;101729.52;1975496;71;39693;-75
2022/04/19 22:32:54;;;;;;;22.40;21.20;;;;;;;11.53;100.00;101723.03;1848084;76;86639;-75
2022/04/19 22:38:39;;;;;;;25.37;23.70;;;;;;;11.43;100.00;101732.70;1872966;75;85529;-74
2022/04/19 22:44:25;;;;;;;27.03;25.27;;;;;;;11.08;100.00;101732.48;1946246;73;86215;-75
2022/04/19 22:50:11;;;;;;;31.83;29.83;;;;;;;10.90;100.00;101728.19;1975572;71;39426;-75
2022/04/19 22:55:55;;;;;;;35.17;33.00;;;;;;;10.74;100.00;101726.39;2002496;70;86668;-74
2022/04/19 23:01:38;;;;;;;38.27;35.97;;;;;;;10.72;100.00;101737.76;1845151;75;85720;-74
2022/04/19 23:07:22;;;;;;;42.17;39.47;;;;;;;10.48;100.00;101738.63;1936442;73;86211;-75
2022/04/19 23:13:08;;;;;;;45.43;42.73;;;;;;;10.39;100.00;101738.84;1986396;71;39758;-75
2022/04/19 23:18:52;;;;;;;50.07;47.07;;;;;;;10.44;100.00;101740.27;1949663;72;86030;-75
2022/04/19 23:24:36;;;;;;;54.10;50.90;;;;;;;10.30;100.00;101745.97;1881763;73;86620;-75
2022/04/19 23:30:22;;;;;;;57.00;53.60;;;;;;;10.31;100.00;101748.20;1912825;72;86623;-75
2022/04/19 23:36:08;;;;;;;58.80;55.20;;;;;;;10.39;100.00;101751.34;1980449;71;40668;-75
2022/04/19 23:41:52;;;;;;;61.23;57.43;;;;;;;10.14;100.00;101754.36;1843663;75;86051;-75
2022/04/19 23:47:36;;;;;;;64.50;60.40;;;;;;;9.93;100.00;101748.55;1839011;76;86275;-77
2022/04/19 23:53:22;;;;;;;63.33;59.27;;;;;;;9.91;100.00;101751.30;1901785;72;86139;-75
2022/04/19 23:59:05;;;;;;;66.37;62.13;;;;;;;9.90;100.00;101757.41;1980013;71;39459;-75
